sensor_id;sensor_type;location;lat;lon;timestamp;P1;durP1;ratioP1;P2;durP2;ratioP2
41275;SDS011;27010;47.718;12.912;2024-01-15T00:01:44;5.83;;;3.03;;
41275;SDS011;27010;47.718;12.912;2024-01-15T00:04:47;3.37;;;2.00;;
41275;SDS011;27010;47.718;12.912;2024-01-15T00:07:50;4.33;;;2.50;;
41275;SDS011;27010;47.718;12.912;2024-01-15T00:10:52;4.93;;;2.37;;
41275;SDS011;27010;47.718;12.912;2024-01-15T00:13:55;6.27;;;2.73;;
41275;SDS011;27010;47.718;12.912;2024-01-15T00:16:57;5.53;;;3.03;;
41275;SDS011;27010;47.718;12.912;2024-01-15T00:20:00;4.13;;;2.43;;
41275;SDS011;27010;47.718;12.912;2024-01-15T00:23:02;5.67;;;2.63;;
41275;SDS011;27010;47.718;12.912;2024-01-15T00:26:04;5.03;;;2.27;;
41275;SDS011;27010;47.718;12.912;2024-01-15T00:29:10;3.67;;;2.30;;
41275;SDS011;27010;47.718;12.912;2024-01-15T00:32:13;3.23;;;2.10;;
41275;SDS011;27010;47.718;12.912;2024-01-15T00:35:15;5.03;;;2.27;;
41275;SDS011;27010;47.718;12.912;2024-01-15T00:38:17;3.70;;;2.20;;
41275;SDS011;27010;47.718;12.912;2024-01-15T00:41:19;3.67;;;2.13;;
41275;SDS011;27010;47.718;12.912;2024-01-15T00:44:21;3.20;;;2.30;;
41275;SDS011;27010;47.718;12.912;2024-01-15T00:47:24;3.47;;;2.13;;
41275;SDS011;27010;47.718;12.912;2024-01-15T00:50:26;4.63;;;2.33;;
41275;SDS011;27010;47.718;12.912;2024-01-15T00:53:28;4.27;;;2.60;;
41275;SDS011;27010;47.718;12.912;2024-01-15T00:56:30;3.30;;;2.03;;
41275;SDS011;27010;47.718;12.912;2024-01-15T00:59:33;3.60;;;2.70;;
41275;SDS011;27010;47.718;12.912;2024-01-15T01:02:35;2.50;;;1.77;;
41275;SDS011;27010;47.718;12.912;2024-01-15T01:05:37;4.63;;;2.50;;
41275;SDS011;27010;47.718;12.912;2024-01-15T01:08:39;4.83;;;3.07;;
41275;SDS011;27010;47.718;12.912;2024-01-15T01:11:42;5.23;;;3.00;;
41275;SDS011;27010;47.718;12.912;2024-01-15T01:14:44;5.53;;;3.00;;
41275;SDS011;27010;47.718;12.912;2024-01-15T01:17:46;6.30;;;2.67;;
41275;SDS011;27010;47.718;12.912;2024-01-15T01:20:48;4.53;;;2.40;;
41275;SDS011;27010;47.718;12.912;2024-01-15T01:23:51;3.70;;;2.70;;
41275;SDS011;27010;47.718;12.912;2024-01-15T01:26:53;4.93;;;2.67;;
41275;SDS011;27010;47.718;12.912;2024-01-15T01:29:55;6.70;;;2.53;;
41275;SDS011;27010;47.718;12.912;2024-01-15T01:32:57;2.93;;;2.10;;
41275;SDS011;27010;47.718;12.912;2024-01-15T01:35:59;5.50;;;2.20;;
41275;SDS011;27010;47.718;12.912;2024-01-15T01:39:02;4.37;;;2.23;;
41275;SDS011;27010;47.718;12.912;2024-01-15T01:42:04;3.10;;;2.00;;
41275;SDS011;27010;47.718;12.912;2024-01-15T01:45:07;3.10;;;2.03;;
41275;SDS011;27010;47.718;12.912;2024-01-15T01:48:10;5.77;;;2.70;;
41275;SDS011;27010;47.718;12.912;2024-01-15T01:51:13;3.67;;;2.10;;
41275;SDS011;27010;47.718;12.912;2024-01-15T02:08:13;3.53;;;1.93;;
41275;SDS011;27010;47.718;12.912;2024-01-15T02:11:16;4.73;;;2.07;;
41275;SDS011;27010;47.718;12.912;2024-01-15T02:14:18;6.10;;;2.33;;
41275;SDS011;27010;47.718;12.912;2024-01-15T02:17:21;2.90;;;2.07;;
41275;SDS011;27010;47.718;12.912;2024-01-15T02:20:23;4.97;;;2.57;;
41275;SDS011;27010;47.718;12.912;2024-01-15T02:23:25;3.70;;;2.67;;
41275;SDS011;27010;47.718;12.912;2024-01-15T02:26:27;5.40;;;3.33;;
41275;SDS011;27010;47.718;12.912;2024-01-15T02:29:29;4.60;;;2.87;;
41275;SDS011;27010;47.718;12.912;2024-01-15T02:32:31;3.83;;;2.30;;
41275;SDS011;27010;47.718;12.912;2024-01-15T02:35:33;3.47;;;2.13;;
41275;SDS011;27010;47.718;12.912;2024-01-15T02:38:38;3.23;;;2.07;;
41275;SDS011;27010;47.718;12.912;2024-01-15T02:41:40;6.33;;;2.40;;
41275;SDS011;27010;47.718;12.912;2024-01-15T02:44:42;4.20;;;2.13;;
41275;SDS011;27010;47.718;12.912;2024-01-15T02:47:44;2.93;;;2.07;;
41275;SDS011;27010;47.718;12.912;2024-01-15T02:50:46;3.50;;;2.00;;
41275;SDS011;27010;47.718;12.912;2024-01-15T02:53:49;4.53;;;2.60;;
41275;SDS011;27010;47.718;12.912;2024-01-15T02:56:51;3.83;;;2.27;;
41275;SDS011;27010;47.718;12.912;2024-01-15T02:59:53;4.10;;;2.60;;
41275;SDS011;27010;47.718;12.912;2024-01-15T03:02:57;4.50;;;2.53;;
41275;SDS011;27010;47.718;12.912;2024-01-15T03:05:59;3.97;;;3.00;;
41275;SDS011;27010;47.718;12.912;2024-01-15T03:09:01;6.87;;;3.87;;
41275;SDS011;27010;47.718;12.912;2024-01-15T03:12:05;5.73;;;4.27;;
41275;SDS011;27010;47.718;12.912;2024-01-15T03:15:07;7.43;;;5.00;;
41275;SDS011;27010;47.718;12.912;2024-01-15T03:18:10;8.73;;;4.33;;
41275;SDS011;27010;47.718;12.912;2024-01-15T03:21:12;6.97;;;4.73;;
41275;SDS011;27010;47.718;12.912;2024-01-15T03:24:14;9.70;;;5.50;;
41275;SDS011;27010;47.718;12.912;2024-01-15T03:27:16;10.77;;;5.50;;
41275;SDS011;27010;47.718;12.912;2024-01-15T03:30:18;10.53;;;6.47;;
41275;SDS011;27010;47.718;12.912;2024-01-15T03:33:21;10.07;;;6.73;;
41275;SDS011;27010;47.718;12.912;2024-01-15T03:36:23;8.63;;;5.83;;
41275;SDS011;27010;47.718;12.912;2024-01-15T03:39:25;11.63;;;7.33;;
41275;SDS011;27010;47.718;12.912;2024-01-15T03:42:27;9.80;;;5.87;;
41275;SDS011;27010;47.718;12.912;2024-01-15T03:45:29;8.60;;;5.53;;
41275;SDS011;27010;47.718;12.912;2024-01-15T03:48:32;10.73;;;6.37;;
41275;SDS011;27010;47.718;12.912;2024-01-15T03:51:35;11.07;;;6.00;;
41275;SDS011;27010;47.718;12.912;2024-01-15T03:54:37;10.53;;;5.57;;
41275;SDS011;27010;47.718;12.912;2024-01-15T03:57:39;9.67;;;5.50;;
41275;SDS011;27010;47.718;12.912;2024-01-15T04:00:42;7.07;;;4.77;;
41275;SDS011;27010;47.718;12.912;2024-01-15T04:03:44;9.00;;;5.47;;
41275;SDS011;27010;47.718;12.912;2024-01-15T04:06:46;7.03;;;5.03;;
41275;SDS011;27010;47.718;12.912;2024-01-15T04:09:48;6.40;;;4.30;;
41275;SDS011;27010;47.718;12.912;2024-01-15T04:12:51;8.20;;;4.73;;
41275;SDS011;27010;47.718;12.912;2024-01-15T04:15:53;7.50;;;5.23;;
41275;SDS011;27010;47.718;12.912;2024-01-15T04:18:55;6.43;;;3.97;;
41275;SDS011;27010;47.718;12.912;2024-01-15T04:21:57;8.20;;;4.67;;
41275;SDS011;27010;47.718;12.912;2024-01-15T04:24:59;7.87;;;5.27;;
41275;SDS011;27010;47.718;12.912;2024-01-15T05:06:15;4.83;;;3.30;;
41275;SDS011;27010;47.718;12.912;2024-01-15T05:09:18;6.63;;;3.97;;
41275;SDS011;27010;47.718;12.912;2024-01-15T05:12:20;6.37;;;4.03;;
41275;SDS011;27010;47.718;12.912;2024-01-15T05:15:23;5.30;;;3.13;;
41275;SDS011;27010;47.718;12.912;2024-01-15T05:18:25;7.03;;;3.40;;
41275;SDS011;27010;47.718;12.912;2024-01-15T05:21:27;7.10;;;4.23;;
41275;SDS011;27010;47.718;12.912;2024-01-15T05:24:29;7.30;;;3.70;;
41275;SDS011;27010;47.718;12.912;2024-01-15T05:27:31;10.33;;;3.73;;
41275;SDS011;27010;47.718;12.912;2024-01-15T05:30:33;7.07;;;3.27;;
41275;SDS011;27010;47.718;12.912;2024-01-15T05:33:37;4.50;;;2.83;;
41275;SDS011;27010;47.718;12.912;2024-01-15T05:36:39;5.40;;;3.20;;
41275;SDS011;27010;47.718;12.912;2024-01-15T05:39:41;5.63;;;3.13;;
41275;SDS011;27010;47.718;12.912;2024-01-15T05:42:43;4.63;;;2.77;;
41275;SDS011;27010;47.718;12.912;2024-01-15T05:45:45;5.67;;;2.90;;
41275;SDS011;27010;47.718;12.912;2024-01-15T05:48:47;6.83;;;3.20;;
41275;SDS011;27010;47.718;12.912;2024-01-15T05:51:50;3.83;;;2.17;;
41275;SDS011;27010;47.718;12.912;2024-01-15T05:54:53;2.83;;;2.00;;
41275;SDS011;27010;47.718;12.912;2024-01-15T05:57:55;3.77;;;2.20;;
41275;SDS011;27010;47.718;12.912;2024-01-15T06:00:57;5.03;;;2.70;;
41275;SDS011;27010;47.718;12.912;2024-01-15T06:04:00;3.17;;;2.40;;
41275;SDS011;27010;47.718;12.912;2024-01-15T06:07:02;7.87;;;3.23;;
41275;SDS011;27010;47.718;12.912;2024-01-15T06:10:04;3.00;;;2.20;;
41275;SDS011;27010;47.718;12.912;2024-01-15T06:13:07;3.40;;;1.77;;
41275;SDS011;27010;47.718;12.912;2024-01-15T06:16:13;3.97;;;2.23;;
41275;SDS011;27010;47.718;12.912;2024-01-15T06:19:17;5.93;;;2.40;;
41275;SDS011;27010;47.718;12.912;2024-01-15T06:22:19;6.13;;;2.90;;
41275;SDS011;27010;47.718;12.912;2024-01-15T06:25:21;3.70;;;2.57;;
41275;SDS011;27010;47.718;12.912;2024-01-15T06:28:23;3.13;;;1.93;;
41275;SDS011;27010;47.718;12.912;2024-01-15T06:31:25;5.00;;;2.60;;
41275;SDS011;27010;47.718;12.912;2024-01-15T06:34:27;4.70;;;2.85;;
41275;SDS011;27010;47.718;12.912;2024-01-15T06:37:29;3.47;;;2.30;;
41275;SDS011;27010;47.718;12.912;2024-01-15T06:40:31;4.63;;;2.30;;
41275;SDS011;27010;47.718;12.912;2024-01-15T06:43:33;4.87;;;2.33;;
41275;SDS011;27010;47.718;12.912;2024-01-15T06:46:35;5.67;;;2.60;;
41275;SDS011;27010;47.718;12.912;2024-01-15T06:49:38;3.10;;;1.90;;
41275;SDS011;27010;47.718;12.912;2024-01-15T06:52:40;3.80;;;2.40;;
41275;SDS011;27010;47.718;12.912;2024-01-15T06:55:42;4.83;;;2.40;;
41275;SDS011;27010;47.718;12.912;2024-01-15T06:58:44;4.63;;;2.43;;
41275;SDS011;27010;47.718;12.912;2024-01-15T07:01:46;2.50;;;1.90;;
41275;SDS011;27010;47.718;12.912;2024-01-15T07:04:49;3.67;;;2.40;;
41275;SDS011;27010;47.718;12.912;2024-01-15T07:07:51;1.73;;;1.20;;
41275;SDS011;27010;47.718;12.912;2024-01-15T07:10:53;7.50;;;1.90;;
41275;SDS011;27010;47.718;12.912;2024-01-15T07:13:57;8.13;;;2.47;;
41275;SDS011;27010;47.718;12.912;2024-01-15T07:16:59;4.73;;;2.37;;
41275;SDS011;27010;47.718;12.912;2024-01-15T07:20:02;4.30;;;2.17;;
41275;SDS011;27010;47.718;12.912;2024-01-15T07:23:05;3.03;;;1.80;;
41275;SDS011;27010;47.718;12.912;2024-01-15T07:26:09;2.33;;;1.77;;
41275;SDS011;27010;47.718;12.912;2024-01-15T07:29:11;3.80;;;2.10;;
41275;SDS011;27010;47.718;12.912;2024-01-15T07:32:13;4.90;;;2.17;;
41275;SDS011;27010;47.718;12.912;2024-01-15T07:35:16;7.23;;;2.10;;
41275;SDS011;27010;47.718;12.912;2024-01-15T07:38:18;2.47;;;1.87;;
41275;SDS011;27010;47.718;12.912;2024-01-15T07:41:20;4.70;;;2.67;;
41275;SDS011;27010;47.718;12.912;2024-01-15T07:44:22;3.37;;;1.90;;
41275;SDS011;27010;47.718;12.912;2024-01-15T07:47:24;3.17;;;2.20;;
41275;SDS011;27010;47.718;12.912;2024-01-15T07:50:29;2.63;;;2.13;;
41275;SDS011;27010;47.718;12.912;2024-01-15T07:53:33;3.97;;;2.20;;
41275;SDS011;27010;47.718;12.912;2024-01-15T08:00:00;3.47;;;1.60;;
41275;SDS011;27010;47.718;12.912;2024-01-15T08:03:03;3.17;;;2.07;;
41275;SDS011;27010;47.718;12.912;2024-01-15T08:06:05;5.23;;;2.60;;
41275;SDS011;27010;47.718;12.912;2024-01-15T08:09:08;4.40;;;1.97;;
41275;SDS011;27010;47.718;12.912;2024-01-15T08:12:10;6.27;;;2.23;;
41275;SDS011;27010;47.718;12.912;2024-01-15T08:15:13;2.80;;;2.00;;
41275;SDS011;27010;47.718;12.912;2024-01-15T08:18:16;3.37;;;2.00;;
41275;SDS011;27010;47.718;12.912;2024-01-15T08:21:18;3.07;;;1.83;;
41275;SDS011;27010;47.718;12.912;2024-01-15T08:24:20;3.27;;;2.07;;
41275;SDS011;27010;47.718;12.912;2024-01-15T08:27:22;3.47;;;2.10;;
41275;SDS011;27010;47.718;12.912;2024-01-15T08:30:25;3.27;;;2.07;;
41275;SDS011;27010;47.718;12.912;2024-01-15T08:33:29;5.23;;;2.37;;
41275;SDS011;27010;47.718;12.912;2024-01-15T08:36:31;2.80;;;2.03;;
41275;SDS011;27010;47.718;12.912;2024-01-15T08:39:36;4.57;;;2.40;;
41275;SDS011;27010;47.718;12.912;2024-01-15T08:42:41;4.23;;;2.23;;
41275;SDS011;27010;47.718;12.912;2024-01-15T08:45:43;3.23;;;2.10;;
41275;SDS011;27010;47.718;12.912;2024-01-15T08:48:45;4.73;;;3.10;;
41275;SDS011;27010;47.718;12.912;2024-01-15T08:51:47;4.80;;;2.83;;
41275;SDS011;27010;47.718;12.912;2024-01-15T08:54:50;5.53;;;2.60;;
41275;SDS011;27010;47.718;12.912;2024-01-15T08:57:52;3.57;;;2.33;;
41275;SDS011;27010;47.718;12.912;2024-01-15T09:00:54;3.47;;;2.50;;
41275;SDS011;27010;47.718;12.912;2024-01-15T09:03:56;5.53;;;2.80;;
41275;SDS011;27010;47.718;12.912;2024-01-15T09:06:59;4.63;;;2.60;;
41275;SDS011;27010;47.718;12.912;2024-01-15T09:10:01;4.60;;;3.00;;
41275;SDS011;27010;47.718;12.912;2024-01-15T09:13:03;5.37;;;2.90;;
41275;SDS011;27010;47.718;12.912;2024-01-15T09:16:06;5.50;;;2.73;;
41275;SDS011;27010;47.718;12.912;2024-01-15T09:19:09;3.20;;;2.07;;
41275;SDS011;27010;47.718;12.912;2024-01-15T09:22:14;4.60;;;2.57;;
41275;SDS011;27010;47.718;12.912;2024-01-15T09:25:20;3.77;;;2.47;;
41275;SDS011;27010;47.718;12.912;2024-01-15T09:28:22;4.10;;;2.53;;
41275;SDS011;27010;47.718;12.912;2024-01-15T09:31:24;2.87;;;2.20;;
41275;SDS011;27010;47.718;12.912;2024-01-15T09:34:26;4.87;;;2.23;;
41275;SDS011;27010;47.718;12.912;2024-01-15T09:37:29;2.83;;;1.90;;
41275;SDS011;27010;47.718;12.912;2024-01-15T09:40:47;4.20;;;2.10;;
41275;SDS011;27010;47.718;12.912;2024-01-15T09:43:50;3.57;;;2.13;;
41275;SDS011;27010;47.718;12.912;2024-01-15T09:46:53;4.23;;;1.87;;
41275;SDS011;27010;47.718;12.912;2024-01-15T09:49:57;5.97;;;1.80;;
41275;SDS011;27010;47.718;12.912;2024-01-15T09:52:59;2.63;;;1.60;;
41275;SDS011;27010;47.718;12.912;2024-01-15T09:56:02;8.50;;;2.13;;
41275;SDS011;27010;47.718;12.912;2024-01-15T09:59:05;4.67;;;2.37;;
41275;SDS011;27010;47.718;12.912;2024-01-15T10:02:07;2.70;;;1.47;;
41275;SDS011;27010;47.718;12.912;2024-01-15T10:05:11;3.00;;;2.67;;
41275;SDS011;27010;47.718;12.912;2024-01-15T10:08:13;2.57;;;2.07;;
41275;SDS011;27010;47.718;12.912;2024-01-15T10:11:16;3.07;;;1.77;;
41275;SDS011;27010;47.718;12.912;2024-01-15T10:14:19;4.33;;;1.83;;
41275;SDS011;27010;47.718;12.912;2024-01-15T10:17:21;9.57;;;1.73;;
41275;SDS011;27010;47.718;12.912;2024-01-15T10:20:23;3.00;;;1.63;;
41275;SDS011;27010;47.718;12.912;2024-01-15T10:23:25;2.07;;;1.57;;
41275;SDS011;27010;47.718;12.912;2024-01-15T10:26:27;1.77;;;1.47;;
41275;SDS011;27010;47.718;12.912;2024-01-15T10:29:29;1.97;;;1.30;;
41275;SDS011;27010;47.718;12.912;2024-01-15T10:32:32;2.93;;;1.50;;
41275;SDS011;27010;47.718;12.912;2024-01-15T10:35:34;2.33;;;1.60;;
41275;SDS011;27010;47.718;12.912;2024-01-15T10:38:37;2.33;;;1.73;;
41275;SDS011;27010;47.718;12.912;2024-01-15T10:41:39;3.10;;;1.80;;
41275;SDS011;27010;47.718;12.912;2024-01-15T10:44:42;3.90;;;1.97;;
41275;SDS011;27010;47.718;12.912;2024-01-15T10:47:53;2.60;;;1.83;;
41275;SDS011;27010;47.718;12.912;2024-01-15T10:50:57;3.07;;;2.10;;
41275;SDS011;27010;47.718;12.912;2024-01-15T10:54:00;4.63;;;1.40;;
41275;SDS011;27010;47.718;12.912;2024-01-15T10:57:02;2.63;;;1.60;;
41275;SDS011;27010;47.718;12.912;2024-01-15T11:00:05;2.80;;;1.47;;
41275;SDS011;27010;47.718;12.912;2024-01-15T11:03:08;3.47;;;1.90;;
41275;SDS011;27010;47.718;12.912;2024-01-15T11:06:19;3.20;;;1.93;;
41275;SDS011;27010;47.718;12.912;2024-01-15T11:09:22;3.30;;;1.80;;
41275;SDS011;27010;47.718;12.912;2024-01-15T11:12:26;3.50;;;2.20;;
41275;SDS011;27010;47.718;12.912;2024-01-15T11:15:28;3.43;;;1.73;;
41275;SDS011;27010;47.718;12.912;2024-01-15T11:18:35;3.33;;;2.27;;
41275;SDS011;27010;47.718;12.912;2024-01-15T11:21:42;6.30;;;3.90;;
41275;SDS011;27010;47.718;12.912;2024-01-15T11:24:45;7.83;;;2.60;;
41275;SDS011;27010;47.718;12.912;2024-01-15T11:27:50;3.90;;;2.70;;
41275;SDS011;27010;47.718;12.912;2024-01-15T11:30:54;2.33;;;1.80;;
41275;SDS011;27010;47.718;12.912;2024-01-15T11:33:57;2.10;;;1.30;;
41275;SDS011;27010;47.718;12.912;2024-01-15T11:37:02;2.50;;;1.50;;
41275;SDS011;27010;47.718;12.912;2024-01-15T11:40:06;3.50;;;1.90;;
41275;SDS011;27010;47.718;12.912;2024-01-15T11:43:12;3.83;;;2.97;;
41275;SDS011;27010;47.718;12.912;2024-01-15T11:46:16;2.67;;;1.70;;
41275;SDS011;27010;47.718;12.912;2024-01-15T11:49:27;5.20;;;2.53;;
41275;SDS011;27010;47.718;12.912;2024-01-15T11:52:55;4.37;;;2.17;;
41275;SDS011;27010;47.718;12.912;2024-01-15T11:56:10;1.57;;;1.40;;
41275;SDS011;27010;47.718;12.912;2024-01-15T11:59:16;3.83;;;2.20;;
41275;SDS011;27010;47.718;12.912;2024-01-15T12:02:18;2.80;;;1.90;;
41275;SDS011;27010;47.718;12.912;2024-01-15T12:05:20;3.90;;;1.70;;
41275;SDS011;27010;47.718;12.912;2024-01-15T12:08:22;1.70;;;1.30;;
41275;SDS011;27010;47.718;12.912;2024-01-15T12:11:26;2.60;;;1.77;;
41275;SDS011;27010;47.718;12.912;2024-01-15T12:14:29;1.43;;;1.20;;
41275;SDS011;27010;47.718;12.912;2024-01-15T12:17:31;2.27;;;1.33;;
41275;SDS011;27010;47.718;12.912;2024-01-15T12:20:33;1.23;;;0.90;;
41275;SDS011;27010;47.718;12.912;2024-01-15T12:23:36;0.97;;;0.90;;
41275;SDS011;27010;47.718;12.912;2024-01-15T12:26:38;2.17;;;1.50;;
41275;SDS011;27010;47.718;12.912;2024-01-15T12:29:40;2.37;;;1.20;;
41275;SDS011;27010;47.718;12.912;2024-01-15T12:32:42;2.43;;;1.40;;
41275;SDS011;27010;47.718;12.912;2024-01-15T12:35:44;2.00;;;1.17;;
41275;SDS011;27010;47.718;12.912;2024-01-15T12:38:46;3.23;;;1.70;;
41275;SDS011;27010;47.718;12.912;2024-01-15T12:41:48;4.07;;;1.50;;
41275;SDS011;27010;47.718;12.912;2024-01-15T12:44:50;3.80;;;1.37;;
41275;SDS011;27010;47.718;12.912;2024-01-15T12:47:52;1.43;;;1.23;;
41275;SDS011;27010;47.718;12.912;2024-01-15T12:50:55;2.97;;;1.93;;
41275;SDS011;27010;47.718;12.912;2024-01-15T12:53:57;1.40;;;1.00;;
41275;SDS011;27010;47.718;12.912;2024-01-15T12:56:59;1.60;;;1.50;;
41275;SDS011;27010;47.718;12.912;2024-01-15T13:00:02;1.80;;;1.60;;
41275;SDS011;27010;47.718;12.912;2024-01-15T13:03:08;1.70;;;1.50;;
41275;SDS011;27010;47.718;12.912;2024-01-15T13:06:10;2.13;;;1.50;;
41275;SDS011;27010;47.718;12.912;2024-01-15T13:09:12;2.43;;;1.80;;
41275;SDS011;27010;47.718;12.912;2024-01-15T13:12:15;2.97;;;1.70;;
41275;SDS011;27010;47.718;12.912;2024-01-15T13:15:17;2.97;;;2.07;;
41275;SDS011;27010;47.718;12.912;2024-01-15T13:18:20;3.50;;;2.10;;
41275;SDS011;27010;47.718;12.912;2024-01-15T13:21:23;3.80;;;1.90;;
41275;SDS011;27010;47.718;12.912;2024-01-15T13:24:25;2.03;;;1.60;;
41275;SDS011;27010;47.718;12.912;2024-01-15T13:27:27;2.30;;;1.50;;
41275;SDS011;27010;47.718;12.912;2024-01-15T13:30:30;6.57;;;1.80;;
41275;SDS011;27010;47.718;12.912;2024-01-15T13:33:33;3.53;;;2.30;;
41275;SDS011;27010;47.718;12.912;2024-01-15T13:36:35;3.90;;;2.40;;
41275;SDS011;27010;47.718;12.912;2024-01-15T13:39:37;6.13;;;3.43;;
41275;SDS011;27010;47.718;12.912;2024-01-15T13:42:39;6.87;;;3.77;;
41275;SDS011;27010;47.718;12.912;2024-01-15T13:45:42;9.03;;;3.57;;
41275;SDS011;27010;47.718;12.912;2024-01-15T13:48:44;7.87;;;2.90;;
41275;SDS011;27010;47.718;12.912;2024-01-15T13:51:46;6.07;;;2.50;;
41275;SDS011;27010;47.718;12.912;2024-01-15T13:54:48;4.53;;;2.27;;
41275;SDS011;27010;47.718;12.912;2024-01-15T13:57:51;2.83;;;1.67;;
41275;SDS011;27010;47.718;12.912;2024-01-15T14:00:54;9.27;;;3.10;;
41275;SDS011;27010;47.718;12.912;2024-01-15T14:03:56;5.73;;;3.00;;
41275;SDS011;27010;47.718;12.912;2024-01-15T14:06:58;5.30;;;2.97;;
41275;SDS011;27010;47.718;12.912;2024-01-15T14:10:01;4.37;;;2.57;;
41275;SDS011;27010;47.718;12.912;2024-01-15T14:13:03;4.30;;;2.60;;
41275;SDS011;27010;47.718;12.912;2024-01-15T14:16:05;3.30;;;2.10;;
41275;SDS011;27010;47.718;12.912;2024-01-15T14:19:07;3.77;;;2.10;;
41275;SDS011;27010;47.718;12.912;2024-01-15T14:22:11;4.67;;;2.90;;
41275;SDS011;27010;47.718;12.912;2024-01-15T14:25:13;3.47;;;2.27;;
41275;SDS011;27010;47.718;12.912;2024-01-15T14:28:15;4.43;;;2.43;;
41275;SDS011;27010;47.718;12.912;2024-01-15T14:31:17;3.93;;;2.33;;
41275;SDS011;27010;47.718;12.912;2024-01-15T14:34:19;4.63;;;2.17;;
41275;SDS011;27010;47.718;12.912;2024-01-15T14:37:26;6.30;;;2.30;;
41275;SDS011;27010;47.718;12.912;2024-01-15T14:40:28;3.60;;;2.13;;
41275;SDS011;27010;47.718;12.912;2024-01-15T14:43:31;2.63;;;2.00;;
41275;SDS011;27010;47.718;12.912;2024-01-15T14:46:34;4.00;;;2.23;;
41275;SDS011;27010;47.718;12.912;2024-01-15T14:49:36;2.97;;;1.80;;
41275;SDS011;27010;47.718;12.912;2024-01-15T14:52:38;2.70;;;1.60;;
41275;SDS011;27010;47.718;12.912;2024-01-15T14:55:44;6.83;;;3.53;;
41275;SDS011;27010;47.718;12.912;2024-01-15T14:58:46;4.50;;;3.03;;
41275;SDS011;27010;47.718;12.912;2024-01-15T15:01:49;9.40;;;3.63;;
41275;SDS011;27010;47.718;12.912;2024-01-15T15:04:51;10.27;;;5.03;;
41275;SDS011;27010;47.718;12.912;2024-01-15T15:07:53;12.50;;;7.07;;
41275;SDS011;27010;47.718;12.912;2024-01-15T15:10:55;16.43;;;8.63;;
41275;SDS011;27010;47.718;12.912;2024-01-15T15:13:58;12.30;;;7.47;;
41275;SDS011;27010;47.718;12.912;2024-01-15T15:17:01;8.53;;;5.40;;
41275;SDS011;27010;47.718;12.912;2024-01-15T15:20:05;5.93;;;2.23;;
41275;SDS011;27010;47.718;12.912;2024-01-15T15:23:09;3.73;;;1.50;;
41275;SDS011;27010;47.718;12.912;2024-01-15T15:26:13;5.10;;;2.40;;
41275;SDS011;27010;47.718;12.912;2024-01-15T15:29:15;3.67;;;1.90;;
41275;SDS011;27010;47.718;12.912;2024-01-15T15:32:19;1.63;;;1.33;;
41275;SDS011;27010;47.718;12.912;2024-01-15T15:35:21;2.30;;;1.37;;
41275;SDS011;27010;47.718;12.912;2024-01-15T15:38:24;2.27;;;1.50;;
41275;SDS011;27010;47.718;12.912;2024-01-15T15:41:27;2.43;;;1.53;;
41275;SDS011;27010;47.718;12.912;2024-01-15T15:44:32;1.80;;;1.23;;
41275;SDS011;27010;47.718;12.912;2024-01-15T15:47:34;1.93;;;1.13;;
41275;SDS011;27010;47.718;12.912;2024-01-15T15:50:37;1.10;;;1.00;;
41275;SDS011;27010;47.718;12.912;2024-01-15T15:53:39;1.60;;;1.27;;
41275;SDS011;27010;47.718;12.912;2024-01-15T15:56:42;3.63;;;2.03;;
41275;SDS011;27010;47.718;12.912;2024-01-15T15:59:49;4.27;;;2.37;;
41275;SDS011;27010;47.718;12.912;2024-01-15T16:02:51;11.97;;;5.73;;
41275;SDS011;27010;47.718;12.912;2024-01-15T16:05:54;5.13;;;2.77;;
41275;SDS011;27010;47.718;12.912;2024-01-15T16:08:56;4.43;;;3.23;;
41275;SDS011;27010;47.718;12.912;2024-01-15T16:11:58;18.83;;;7.83;;
41275;SDS011;27010;47.718;12.912;2024-01-15T16:15:00;15.87;;;7.30;;
41275;SDS011;27010;47.718;12.912;2024-01-15T16:18:03;9.50;;;4.63;;
41275;SDS011;27010;47.718;12.912;2024-01-15T16:21:26;4.93;;;3.30;;
41275;SDS011;27010;47.718;12.912;2024-01-15T16:24:48;3.20;;;1.97;;
41275;SDS011;27010;47.718;12.912;2024-01-15T16:27:54;6.77;;;3.60;;
41275;SDS011;27010;47.718;12.912;2024-01-15T16:30:57;3.07;;;2.77;;
41275;SDS011;27010;47.718;12.912;2024-01-15T16:34:05;22.10;;;16.80;;
41275;SDS011;27010;47.718;12.912;2024-01-15T16:37:11;7.53;;;5.50;;
41275;SDS011;27010;47.718;12.912;2024-01-15T16:40:14;3.10;;;2.27;;
41275;SDS011;27010;47.718;12.912;2024-01-15T16:43:16;2.50;;;2.00;;
41275;SDS011;27010;47.718;12.912;2024-01-15T16:46:19;1.90;;;1.40;;
41275;SDS011;27010;47.718;12.912;2024-01-15T16:49:21;2.57;;;1.60;;
41275;SDS011;27010;47.718;12.912;2024-01-15T16:52:23;1.10;;;1.00;;
41275;SDS011;27010;47.718;12.912;2024-01-15T16:55:25;4.57;;;2.50;;
41275;SDS011;27010;47.718;12.912;2024-01-15T16:58:27;1.67;;;1.37;;
41275;SDS011;27010;47.718;12.912;2024-01-15T17:01:29;3.10;;;1.87;;
41275;SDS011;27010;47.718;12.912;2024-01-15T17:04:32;2.40;;;1.53;;
41275;SDS011;27010;47.718;12.912;2024-01-15T17:07:34;3.10;;;1.23;;
41275;SDS011;27010;47.718;12.912;2024-01-15T17:10:36;1.50;;;1.40;;
41275;SDS011;27010;47.718;12.912;2024-01-15T17:13:40;5.17;;;4.27;;
41275;SDS011;27010;47.718;12.912;2024-01-15T17:16:42;3.63;;;2.70;;
41275;SDS011;27010;47.718;12.912;2024-01-15T17:19:44;2.20;;;1.17;;
41275;SDS011;27010;47.718;12.912;2024-01-15T17:22:47;1.83;;;1.27;;
41275;SDS011;27010;47.718;12.912;2024-01-15T17:25:49;3.47;;;1.20;;
41275;SDS011;27010;47.718;12.912;2024-01-15T17:28:52;1.47;;;1.00;;
41275;SDS011;27010;47.718;12.912;2024-01-15T17:31:54;1.80;;;0.60;;
41275;SDS011;27010;47.718;12.912;2024-01-15T17:34:57;2.50;;;0.70;;
41275;SDS011;27010;47.718;12.912;2024-01-15T17:38:00;1.83;;;1.00;;
41275;SDS011;27010;47.718;12.912;2024-01-15T17:41:02;2.43;;;1.57;;
41275;SDS011;27010;47.718;12.912;2024-01-15T17:44:04;1.33;;;1.20;;
41275;SDS011;27010;47.718;12.912;2024-01-15T17:47:07;1.37;;;0.97;;
41275;SDS011;27010;47.718;12.912;2024-01-15T17:50:09;1.60;;;1.10;;
41275;SDS011;27010;47.718;12.912;2024-01-15T17:53:11;1.63;;;1.03;;
41275;SDS011;27010;47.718;12.912;2024-01-15T17:56:15;3.10;;;1.43;;
41275;SDS011;27010;47.718;12.912;2024-01-15T17:59:17;1.80;;;1.10;;
41275;SDS011;27010;47.718;12.912;2024-01-15T18:02:19;2.20;;;1.00;;
41275;SDS011;27010;47.718;12.912;2024-01-15T18:05:21;1.83;;;1.37;;
41275;SDS011;27010;47.718;12.912;2024-01-15T18:08:23;5.30;;;1.70;;
41275;SDS011;27010;47.718;12.912;2024-01-15T18:11:27;4.73;;;1.40;;
41275;SDS011;27010;47.718;12.912;2024-01-15T18:14:29;3.13;;;1.43;;
41275;SDS011;27010;47.718;12.912;2024-01-15T18:17:31;1.60;;;1.00;;
41275;SDS011;27010;47.718;12.912;2024-01-15T18:20:37;1.40;;;1.20;;
41275;SDS011;27010;47.718;12.912;2024-01-15T18:23:40;1.43;;;1.17;;
41275;SDS011;27010;47.718;12.912;2024-01-15T18:26:42;1.40;;;1.10;;
41275;SDS011;27010;47.718;12.912;2024-01-15T18:29:44;3.13;;;1.87;;
41275;SDS011;27010;47.718;12.912;2024-01-15T18:32:46;3.43;;;2.00;;
41275;SDS011;27010;47.718;12.912;2024-01-15T18:35:49;2.40;;;1.43;;
41275;SDS011;27010;47.718;12.912;2024-01-15T18:38:51;2.07;;;1.53;;
41275;SDS011;27010;47.718;12.912;2024-01-15T18:41:53;7.67;;;3.97;;
41275;SDS011;27010;47.718;12.912;2024-01-15T18:44:55;1.93;;;1.20;;
41275;SDS011;27010;47.718;12.912;2024-01-15T18:47:57;8.23;;;1.10;;
41275;SDS011;27010;47.718;12.912;2024-01-15T18:50:59;2.40;;;1.10;;
41275;SDS011;27010;47.718;12.912;2024-01-15T18:54:01;1.47;;;1.00;;
41275;SDS011;27010;47.718;12.912;2024-01-15T18:57:03;1.17;;;1.00;;
41275;SDS011;27010;47.718;12.912;2024-01-15T19:00:07;1.57;;;1.00;;